Time;durP1;ratioP1;P1;durP2;ratioP2;P2;SDS_P1;SDS_P2;PMS_P1;PMS_P2;Temp;Humidity;BMP_temperature;BMP_pressure;BME280_temperature;BME280_humidity;BME280_pressure;Samples;Min_cycle;Max_cycle;Signal;HPM_P1;HPM_P2
2024/02/05 00:02:28;;;;;;;;;;;;;;;4.84;100.00;98480.27;272134;1273;22536;-92
2024/02/05 00:08:35;;;;;;;;;;;;;;;4.84;100.00;98475.09;271324;1273;22487;-89
2024/02/05 00:14:39;;;;;;;;;;;;;;;4.85;100.00;98464.48;272902;1277;22376;-90
2024/02/05 00:20:44;;;;;;;;;;;;;;;4.88;100.00;98459.45;272261;1273;22442;-90
2024/02/05 00:26:46;;;;;;;;;;;;;;;4.90;100.00;98454.61;272331;1273;22547;-90
2024/02/05 00:32:51;;;;;;;;;;;;;;;4.91;100.00;98449.45;270703;1273;22500;-92
2024/02/05 00:38:58;;;;;;;;;;;;;;;4.95;100.00;98445.73;272387;1273;22426;-91
2024/02/05 00:45:33;;;;;;;;;;;;;;;4.96;100.00;98442.22;272712;1277;23746;-91
2024/02/05 00:51:40;;;;;;;;;;;;;;;4.98;100.00;98451.31;272815;1277;23090;-92
2024/02/05 00:57:44;;;;;;;;;;;;;;;4.96;100.00;98453.60;272678;1273;22388;-90
2024/02/05 01:03:46;;;;;;;;;;;;;;;4.91;100.00;98441.21;272136;1273;22472;-92
2024/02/05 01:10:02;;;;;;;;;;;;;;;;;;;;;
2024/02/05 01:16:42;;;;;;;;;;;;;;;4.81;100.00;98431.23;271955;1273;22568;-91
2024/02/05 01:23:10;;;;;;;;;;;;;;;4.78;100.00;98419.77;272064;1273;22572;-90
2024/02/05 01:29:17;;;;;;;;;;;;;;;4.77;100.00;98416.89;272276;1273;23415;-91
2024/02/05 01:35:37;;;;;;;;;;;;;;;4.76;100.00;98399.58;271663;1273;23250;-91
2024/02/05 01:41:49;;;;;;;;;;;;;;;4.77;100.00;98388.00;272199;1273;22481;-91
2024/02/05 01:47:59;;;;;;;;;;;;;;;4.78;100.00;98385.84;272123;1268;22593;-92
2024/02/05 01:54:01;;;;;;;;;;;;;;;4.80;100.00;98377.90;272171;1273;24420;-91
2024/02/05 02:00:22;;;;;;;;;;;;;;;4.81;100.00;98370.48;271615;1272;136292;-88
2024/02/05 02:06:50;;;;;;;;;;;;;;;4.83;100.00;98362.25;272268;1264;22433;-91
2024/02/05 02:12:52;;;;;;;;;;;;;;;4.80;100.00;98355.20;270127;1274;25282;-92
2024/02/05 02:18:54;;;;;;;;;;;;;;;4.70;100.00;98349.45;269926;1273;22571;-92
2024/02/05 02:24:59;;;;;;;;;;;;;;;4.62;100.00;98338.97;270095;1273;22476;-90
2024/02/05 02:37:35;;;;;;;;;;;;;;;4.55;100.00;98323.69;271936;1270;22556;-92
2024/02/05 02:43:37;;;;;;;;;;;;;;;4.55;100.00;98313.55;272680;1270;23448;-91
2024/02/05 02:49:39;;;;;;;;;;;;;;;4.56;100.00;98301.02;270118;1270;24121;-92
2024/02/05 02:55:40;;;;;;;;;;;;;;;4.56;100.00;98296.21;272716;1270;23268;-91
2024/02/05 03:01:42;;;;;;;;;;;;;;;4.58;100.00;98284.19;272669;1270;22487;-92
2024/02/05 03:07:44;;;;;;;;;;;;;;;4.60;100.00;98265.04;272520;1270;22522;-91
2024/02/05 03:13:46;;;;;;;;;;;;;;;4.65;100.00;98244.70;272744;1270;22441;-93
2024/02/05 03:19:47;;;;;;;;;;;;;;;4.69;100.00;98234.42;272735;1270;22443;-91
2024/02/05 03:25:50;;;;;;;;;;;;;;;4.73;100.00;98230.69;272664;1270;22513;-92
2024/02/05 03:31:51;;;;;;;;;;;;;;;4.76;100.00;98217.69;272384;1262;23271;-92
2024/02/05 03:37:53;;;;;;;;;;;;;;;4.78;100.00;98205.33;271481;1272;22545;-92
2024/02/05 03:43:55;;;;;;;;;;;;;;;4.79;100.00;98197.13;272435;1272;23147;-91
2024/02/05 03:49:57;;;;;;;;;;;;;;;4.78;100.00;98186.57;272620;1272;22507;-91
2024/02/05 03:55:59;;;;;;;;;;;;;;;4.76;100.00;98169.95;271554;1272;22561;-92
2024/02/05 04:02:04;;;;;;;;;;;;;;;4.74;100.00;98164.95;269879;1272;22586;-91
2024/02/05 04:08:06;;;;;;;;;;;;;;;4.75;100.00;98148.70;270190;1271;22515;-91
2024/02/05 04:14:10;;;;;;;;;;;;;;;4.70;100.00;98133.13;268716;1272;22605;-91
2024/02/05 04:20:12;;;;;;;;;;;;;;;4.70;100.00;98125.38;272010;1272;22476;-91
2024/02/05 04:26:14;;;;;;;;;;;;;;;4.71;100.00;98123.30;272222;1272;24258;-91
2024/02/05 04:32:16;;;;;;;;;;;;;;;4.72;100.00;98107.67;272029;1272;22606;-91
2024/02/05 04:38:18;;;;;;;;;;;;;;;4.74;100.00;98080.30;269764;1270;23121;-91
2024/02/05 04:44:20;;;;;;;;;;;;;;;4.95;100.00;98060.14;271171;1270;22555;-92
2024/02/05 04:50:24;;;;;;;;;;;;;;;5.17;100.00;98052.09;270132;1265;25675;-93
2024/02/05 04:56:27;;;;;;;;;;;;;;;5.49;100.00;98033.77;269852;1270;22505;-94
2024/02/05 05:02:31;;;;;;;;;;;;;;;5.92;100.00;98027.98;272320;1270;22439;-91
2024/02/05 05:08:33;;;;;;;;;;;;;;;6.23;100.00;98028.81;270560;1272;23277;-94
2024/02/05 05:14:37;;;;;;;;;;;;;;;6.48;100.00;98015.13;271075;1263;22515;-89
2024/02/05 05:20:39;;;;;;;;;;;;;;;6.73;100.00;98005.92;271980;1270;22537;-90
2024/02/05 05:26:44;;;;;;;;;;;;;;;6.92;100.00;98009.46;271588;1270;23434;-92
2024/02/05 05:32:46;;;;;;;;;;;;;;;6.99;100.00;98002.69;271357;1272;22492;-92
2024/02/05 05:38:48;;;;;;;;;;;;;;;7.13;100.00;97997.74;272564;1272;22558;-92
2024/02/05 05:44:51;;;;;;;;;;;;;;;7.23;100.00;97999.79;272408;1271;22533;-93
2024/02/05 05:51:09;;;;;;;;;;;;;;;7.32;100.00;98001.27;271704;1270;24322;-92
2024/02/05 05:57:27;;;;;;;;;;;;;;;7.44;100.00;98005.32;271162;1270;23160;-92
2024/02/05 06:03:29;;;;;;;;;;;;;;;7.53;100.00;98012.08;270112;1272;22553;-91
2024/02/05 06:09:38;;;;;;;;;;;;;;;7.62;100.00;98014.40;270792;1270;23746;-90
2024/02/05 06:15:40;;;;;;;;;;;;;;;7.66;100.00;98015.75;272482;1271;22476;-91
2024/02/05 06:21:46;;;;;;;;;;;;;;;7.66;100.00;98021.51;272224;1270;22525;-92
2024/02/05 06:27:52;;;;;;;;;;;;;;;7.67;100.00;98011.39;270958;1270;22505;-91
2024/02/05 06:33:55;;;;;;;;;;;;;;;7.73;100.00;98021.64;271698;1270;22521;-92
2024/02/05 06:40:04;;;;;;;;;;;;;;;7.76;100.00;98028.27;271363;1270;22476;-91
2024/02/05 06:46:11;;;;;;;;;;;;;;;7.84;100.00;98015.56;270650;1270;22630;-92
2024/02/05 06:52:19;;;;;;;;;;;;;;;7.88;100.00;98027.58;270653;1270;23366;-91
2024/02/05 06:58:23;;;;;;;;;;;;;;;7.90;100.00;98049.07;270217;1270;23973;-93
2024/02/05 07:04:27;;;;;;;;;;;;;;;7.93;100.00;98057.20;269285;1270;24394;-93
2024/02/05 07:10:29;;;;;;;;;;;;;;;8.00;100.00;98049.85;271320;1270;22502;-92
2024/02/05 07:16:34;;;;;;;;;;;;;;;8.09;100.00;98048.73;271298;1270;22513;-93
2024/02/05 07:22:37;;;;;;;;;;;;;;;8.22;100.00;98063.77;271717;1270;22497;-93
2024/02/05 07:28:45;;;;;;;;;;;;;;;8.27;100.00;98077.67;271704;1270;22633;-93
2024/02/05 07:34:52;;;;;;;;;;;;;;;8.27;100.00;98082.35;271686;1261;23180;-91
2024/02/05 07:40:55;;;;;;;;;;;;;;;8.27;100.00;98082.43;271140;1271;22491;-94
2024/02/05 07:46:59;;;;;;;;;;;;;;;8.28;100.00;98090.45;272191;1271;22563;-93
2024/02/05 07:53:01;;;;;;;;;;;;;;;8.30;100.00;98113.21;270849;1271;22503;-94
2024/02/05 07:59:03;;;;;;;;;;;;;;;8.30;100.00;98129.96;272426;1271;22473;-92
2024/02/05 08:05:05;;;;;;;;;;;;;;;8.31;100.00;98130.36;272823;1268;22510;-95
2024/02/05 08:11:07;;;;;;;;;;;;;;;8.31;100.00;98134.10;272132;1272;23364;-93
2024/02/05 08:17:09;;;;;;;;;;;;;;;8.31;100.00;98154.20;270445;1271;22558;-93
2024/02/05 08:23:14;;;;;;;;;;;;;;;8.27;100.00;98164.23;269158;1272;23775;-93
2024/02/05 08:29:21;;;;;;;;;;;;;;;8.22;100.00;98161.61;270006;1271;22550;-91
2024/02/05 08:35:26;;;;;;;;;;;;;;;8.21;100.00;98169.06;270012;1270;22570;-91
2024/02/05 08:41:30;;;;;;;;;;;;;;;8.21;100.00;98169.30;272656;1269;22431;-93
2024/02/05 08:47:33;;;;;;;;;;;;;;;8.24;100.00;98189.98;272720;1270;22610;-93
2024/02/05 08:53:34;;;;;;;;;;;;;;;8.26;100.00;98198.89;272651;1270;22487;-91
2024/02/05 08:59:39;;;;;;;;;;;;;;;8.25;100.00;98210.48;271184;1270;23145;-93
2024/02/05 09:05:40;;;;;;;;;;;;;;;8.22;100.00;98211.08;270127;1270;22547;-92
2024/02/05 09:11:42;;;;;;;;;;;;;;;8.20;100.00;98211.42;269592;1270;23402;-93
2024/02/05 09:17:45;;;;;;;;;;;;;;;8.20;100.00;98211.42;270521;1270;22620;-91
2024/02/05 09:23:47;;;;;;;;;;;;;;;8.19;100.00;98228.17;272575;1270;22491;-91
2024/02/05 09:29:49;;;;;;;;;;;;;;;8.21;100.00;98225.21;272703;1270;22449;-93
2024/02/05 09:35:50;;;;;;;;;;;;;;;8.22;100.00;98225.86;272275;1270;22501;-92
2024/02/05 09:41:53;;;;;;;;;;;;;;;8.25;100.00;98229.58;271800;1270;23234;-92
2024/02/05 09:48:00;;;;;;;;;;;;;;;8.28;100.00;98229.74;270339;1270;23667;-93
2024/02/05 09:54:02;;;;;;;;;;;;;;;8.28;100.00;98227.02;272624;1270;22485;-92
2024/02/05 10:00:11;;;;;;;;;;;;;;;8.29;100.00;98218.70;272589;1269;22540;-95
2024/02/05 10:06:17;;;;;;;;;;;;;;;8.33;100.00;98225.73;271929;1270;22652;-92
2024/02/05 10:12:21;;;;;;;;;;;;;;;8.33;100.00;98225.90;271648;1270;22591;-95
2024/02/05 10:18:23;;;;;;;;;;;;;;;8.34;100.00;98224.41;272085;1269;23768;-93
2024/02/05 10:24:24;;;;;;;;;;;;;;;8.34;100.00;98221.30;270495;1270;22612;-94
2024/02/05 10:30:27;;;;;;;;;;;;;;;8.36;100.00;98217.89;271728;1270;22568;-94
2024/02/05 10:36:29;;;;;;;;;;;;;;;8.36;100.00;98213.39;270879;1271;22528;-93
2024/02/05 10:42:36;;;;;;;;;;;;;;;8.40;100.00;98208.96;270803;1271;22511;-91
2024/02/05 10:48:38;;;;;;;;;;;;;;;8.44;100.00;98211.95;271902;1271;23699;-92
2024/02/05 10:54:40;;;;;;;;;;;;;;;8.50;100.00;98204.73;271293;1271;22516;-92
2024/02/05 11:00:43;;;;;;;;;;;;;;;8.54;100.00;98201.04;272062;1271;22565;-92
2024/02/05 11:06:47;;;;;;;;;;;;;;;8.57;100.00;98204.01;271517;1271;22500;-92
2024/02/05 11:12:53;;;;;;;;;;;;;;;8.60;100.00;98192.24;272178;1271;25419;-92
2024/02/05 11:19:06;;;;;;;;;;;;;;;;;;;;;
2024/02/05 11:25:17;;;;;;;;;;;;;;;8.61;100.00;98202.79;271920;1270;22854;-92
2024/02/05 11:31:26;;;;;;;;;;;;;;;8.62;100.00;98209.48;271470;1271;23719;-92
2024/02/05 11:37:36;;;;;;;;;;;;;;;8.61;100.00;98204.98;271433;1262;22545;-92
2024/02/05 11:43:51;;;;;;;;;;;;;;;8.61;100.00;98209.66;272166;1269;23197;-93
2024/02/05 11:49:58;;;;;;;;;;;;;;;8.65;100.00;98211.15;272228;1269;24321;-92
2024/02/05 11:56:01;;;;;;;;;;;;;;;8.69;100.00;98211.64;271959;1270;22524;-93
2024/02/05 12:02:08;;;;;;;;;;;;;;;8.72;100.00;98217.83;272283;1270;22491;-92
2024/02/05 12:08:18;;;;;;;;;;;;;;;8.74;100.00;98215.98;272283;1270;23870;-92
2024/02/05 12:14:20;;;;;;;;;;;;;;;8.74;100.00;98225.40;270072;1269;22533;-93
2024/02/05 12:20:22;;;;;;;;;;;;;;;8.73;100.00;98225.15;272145;1270;22621;-91
2024/02/05 12:26:29;;;;;;;;;;;;;;;8.69;100.00;98227.55;272549;1270;22562;-92
2024/02/05 12:32:30;;;;;;;;;;;;;;;8.68;100.00;98222.93;272456;1270;22440;-91
2024/02/05 12:38:38;;;;;;;;;;;;;;;8.67;100.00;98231.05;272480;1270;23769;-91
2024/02/05 12:44:40;;;;;;;;;;;;;;;8.64;100.00;98229.71;272082;1271;22509;-93
2024/02/05 12:50:42;;;;;;;;;;;;;;;8.64;100.00;98220.04;272578;1271;22440;-91
2024/02/05 12:56:44;;;;;;;;;;;;;;;8.66;100.00;98228.08;272200;1270;24515;-93
2024/02/05 13:02:46;;;;;;;;;;;;;;;8.66;100.00;98228.16;272278;1271;22754;-92
2024/02/05 13:08:48;;;;;;;;;;;;;;;8.63;100.00;98238.13;272266;1271;22446;-91
2024/02/05 13:14:53;;;;;;;;;;;;;;;8.61;100.00;98235.91;272177;1271;22476;-94
2024/02/05 13:20:58;;;;;;;;;;;;;;;8.60;100.00;98229.05;272186;1271;22472;-92
2024/02/05 13:27:06;;;;;;;;;;;;;;;8.64;100.00;98233.36;272372;1271;22526;-93
2024/02/05 13:33:07;;;;;;;;;;;;;;;8.69;100.00;98240.10;271369;1271;22512;-92
2024/02/05 13:39:14;;;;;;;;;;;;;;;8.76;100.00;98251.06;272814;1270;22549;-93
2024/02/05 13:45:18;;;;;;;;;;;;;;;8.77;100.00;98259.95;272566;1270;22919;-92
2024/02/05 13:51:21;;;;;;;;;;;;;;;8.75;100.00;98269.38;272634;1270;22517;-92
2024/02/05 13:57:29;;;;;;;;;;;;;;;8.71;100.00;98280.26;271349;1269;432011;-94
2024/02/05 14:03:32;;;;;;;;;;;;;;;8.69;100.00;98283.44;271200;1270;22573;-91
2024/02/05 14:09:37;;;;;;;;;;;;;;;8.66;100.00;98296.52;272001;1265;23454;-92
2024/02/05 14:15:59;;;;;;;;;;;;;;;8.63;100.00;98301.80;271666;1270;22523;-92
2024/02/05 14:22:06;;;;;;;;;;;;;;;8.63;100.00;98304.92;271500;1269;22508;-93
2024/02/05 14:28:09;;;;;;;;;;;;;;;8.64;100.00;98310.46;271269;1265;22590;-92
2024/02/05 14:34:16;;;;;;;;;;;;;;;8.63;100.00;98318.55;271359;1270;23645;-92
2024/02/05 14:40:20;;;;;;;;;;;;;;;8.59;100.00;98320.09;270819;1270;22628;-93
2024/02/05 14:46:25;;;;;;;;;;;;;;;8.59;100.00;98318.45;272581;1270;22499;-91
2024/02/05 14:52:35;;;;;;;;;;;;;;;8.58;100.00;98318.36;271712;1270;22654;-94
2024/02/05 14:59:28;;;;;;;;;;;;;;;;;;;;;
2024/02/05 15:05:30;;;;;;;;;;;;;;;8.54;100.00;98326.04;272741;1270;22450;-94
2024/02/05 15:11:39;;;;;;;;;;;;;;;8.52;100.00;98321.73;272384;1270;22546;-94
2024/02/05 15:17:45;;;;;;;;;;;;;;;8.50;100.00;98323.13;272559;1270;22451;-94
2024/02/05 15:23:48;;;;;;;;;;;;;;;8.50;100.00;98324.69;272485;1270;22459;-94
2024/02/05 15:30:01;;;;;;;;;;;;;;;8.54;100.00;98326.11;272801;1260;23304;-94
2024/02/05 15:36:04;;;;;;;;;;;;;;;8.59;100.00;98333.33;271261;1269;25281;-95
2024/02/05 15:42:09;;;;;;;;;;;;;;;8.59;100.00;98342.84;272478;1269;23804;-93
2024/02/05 15:48:14;;;;;;;;;;;;;;;8.57;100.00;98352.33;272035;1270;22485;-93
2024/02/05 15:55:02;;;;;;;;;;;;;;;8.57;100.00;98361.14;272335;1270;23178;-93
2024/02/05 16:01:08;;;;;;;;;;;;;;;8.55;100.00;98375.70;270422;1270;22519;-92
2024/02/05 16:07:13;;;;;;;;;;;;;;;8.49;100.00;98384.30;270371;1270;22541;-94
2024/02/05 16:13:34;;;;;;;;;;;;;;;8.46;100.00;98382.40;271604;1269;22497;-93
2024/02/05 16:19:51;;;;;;;;;;;;;;;8.42;100.00;98392.41;271739;1270;23149;-94
2024/02/05 16:32:43;;;;;;;;;;;;;;;8.38;100.00;98395.64;272326;1270;22517;-93
2024/02/05 16:39:10;;;;;;;;;;;;;;;8.43;100.00;98402.48;271568;1269;23301;-93
2024/02/05 16:45:24;;;;;;;;;;;;;;;8.47;100.00;98411.17;271363;1269;22550;-94
2024/02/05 16:51:40;;;;;;;;;;;;;;;8.47;100.00;98423.48;271866;1270;22604;-93
2024/02/05 16:58:24;;;;;;;;;;;;;;;8.46;100.00;98425.26;271849;1270;23083;-93
2024/02/05 17:04:44;;;;;;;;;;;;;;;8.52;100.00;98434.98;269222;1270;22516;-93
2024/02/05 17:11:08;;;;;;;;;;;;;;;8.60;100.00;98435.77;271689;1270;22539;-93
2024/02/05 17:17:53;;;;;;;;;;;;;;;8.64;100.00;98425.28;271110;1270;23497;-92
2024/02/05 17:31:05;;;;;;;;;;;;;;;8.71;100.00;98419.50;270899;1270;24373;-94
2024/02/05 17:37:25;;;;;;;;;;;;;;;8.73;100.00;98417.89;269897;1270;22527;-93
2024/02/05 17:43:50;;;;;;;;;;;;;;;8.81;100.00;98412.80;271223;1271;23811;-93
2024/02/05 17:50:33;;;;;;;;;;;;;;;;;;;;;
2024/02/05 17:56:37;;;;;;;;;;;;;;;8.93;100.00;98407.77;270953;1271;25603;-93
2024/02/05 18:02:59;;;;;;;;;;;;;;;8.99;100.00;98409.70;255621;1271;20002696;-92
2024/02/05 18:09:34;;;;;;;;;;;;;;;9.01;100.00;98409.16;269817;1271;22538;-93
2024/02/05 18:16:15;;;;;;;;;;;;;;;9.02;100.00;98410.41;271123;1271;22474;-92
2024/02/05 18:22:21;;;;;;;;;;;;;;;8.99;100.00;98408.05;271666;1271;23639;-94
2024/02/05 18:28:25;;;;;;;;;;;;;;;8.98;100.00;98406.01;271720;1271;22491;-92
2024/02/05 18:51:17;;;;;;;;;;;;;;;8.97;100.00;98410.69;261844;1294;5283147;-92
2024/02/05 18:58:08;;;;;;;;;;;;;;;8.90;100.00;98406.03;264531;1303;544072;-91
2024/02/05 19:04:23;;;;;;;;;;;;;;;8.88;100.00;98398.45;269798;1279;22556;-94
2024/02/05 19:10:45;;;;;;;;;;;;;;;8.90;100.00;98396.52;266245;1276;6435712;-93
2024/02/05 19:16:48;;;;;;;;;;;;;;;8.93;100.00;98407.38;269890;1277;22639;-93
2024/02/05 19:30:59;;;;;;;;;;;;;;;8.95;100.00;98415.83;272011;1270;23319;-96
2024/02/05 19:37:48;;;;;;;;;;;;;;;;;;;;;
2024/02/05 19:44:36;;;;;;;;;;;;;;;;;;;;;
2024/02/05 19:52:10;;;;;;;;;;;;;;;9.00;100.00;98405.57;270414;1272;22541;-95
2024/02/05 19:59:11;;;;;;;;;;;;;;;8.96;100.00;98409.59;270527;1269;22490;-94
2024/02/05 20:05:50;;;;;;;;;;;;;;;8.96;100.00;98409.66;271369;1266;22654;-92
2024/02/05 20:12:05;;;;;;;;;;;;;;;8.96;100.00;98400.61;271404;1266;23596;-92
2024/02/05 20:18:23;;;;;;;;;;;;;;;8.98;100.00;98392.52;271493;1266;22511;-91
2024/02/05 20:24:56;;;;;;;;;;;;;;;8.94;100.00;98392.10;272262;1266;22516;-95
2024/02/05 20:31:48;;;;;;;;;;;;;;;;;;;;;
2024/02/05 20:38:48;;;;;;;;;;;;;;;8.96;100.00;98386.96;270834;1273;23336;-92
2024/02/05 20:44:55;;;;;;;;;;;;;;;8.95;100.00;98389.84;270307;1267;22527;-92
2024/02/05 20:51:53;;;;;;;;;;;;;;;8.95;100.00;98382.35;272081;1266;23870;-95
2024/02/05 20:58:38;;;;;;;;;;;;;;;;;;;;;
2024/02/05 21:05:33;;;;;;;;;;;;;;;;;;;;;
2024/02/05 21:11:50;;;;;;;;;;;;;;;8.94;100.00;98394.97;271722;1265;22541;-93
2024/02/05 21:24:45;;;;;;;;;;;;;;;8.92;100.00;98394.04;271239;1265;22513;-91
2024/02/05 21:30:56;;;;;;;;;;;;;;;;;;;;;
2024/02/05 21:37:36;;;;;;;;;;;;;;;8.93;100.00;98395.36;271188;1265;22656;-93
2024/02/05 21:43:37;;;;;;;;;;;;;;;8.90;100.00;98388.88;272328;1265;24236;-91
2024/02/05 21:49:56;;;;;;;;;;;;;;;8.86;100.00;98385.48;272861;1265;22608;-91
2024/02/05 21:56:27;;;;;;;;;;;;;;;8.81;100.00;98382.63;271884;1266;23503;-91
2024/02/05 22:02:38;;;;;;;;;;;;;;;8.76;100.00;98380.10;272809;1265;23362;-94
2024/02/05 22:09:09;;;;;;;;;;;;;;;8.81;100.00;98376.09;270665;1265;22585;-95
2024/02/05 22:15:34;;;;;;;;;;;;;;;;;;;;;
2024/02/05 22:22:25;;;;;;;;;;;;;;;;;;;;;
2024/02/05 22:28:31;;;;;;;;;;;;;;;;;;;;;
2024/02/05 22:34:46;;;;;;;;;;;;;;;8.95;100.00;98403.65;271952;1265;22788;-91
2024/02/05 22:41:46;;;;;;;;;;;;;;;;;;;;;
2024/02/05 22:47:48;;;;;;;;;;;;;;;;;;;;;
2024/02/05 22:53:53;;;;;;;;;;;;;;;9.00;100.00;98420.70;270995;1265;22521;-93
2024/02/05 22:59:59;;;;;;;;;;;;;;;9.02;99.84;98422.27;270508;1265;22712;-94
2024/02/05 23:13:39;;;;;;;;;;;;;;;8.94;99.62;98427.89;270431;1266;22966;-93
2024/02/05 23:19:45;;;;;;;;;;;;;;;8.92;99.54;98422.41;271366;1265;23886;-93
2024/02/05 23:25:54;;;;;;;;;;;;;;;8.90;99.13;98421.46;270437;1260;22500;-92
2024/02/05 23:32:04;;;;;;;;;;;;;;;8.85;98.96;98418.70;271615;1265;22596;-93
2024/02/05 23:38:08;;;;;;;;;;;;;;;8.81;98.69;98418.50;273321;1266;22682;-93
2024/02/05 23:44:09;;;;;;;;;;;;;;;8.81;98.41;98421.92;273117;1265;22491;-93
2024/02/05 23:50:25;;;;;;;;;;;;;;;8.78;98.30;98422.92;273014;1265;22530;-92
2024/02/05 23:56:46;;;;;;;;;;;;;;;8.79;97.97;98428.16;270829;1265;24420;-93
